Time;durP1;ratioP1;P1;durP2;ratioP2;P2;SDS_P1;SDS_P2;PMS_P1;PMS_P2;Temp;Humidity;BMP_temperature;BMP_pressure;BME280_temperature;BME280_humidity;BME280_pressure;Samples;Min_cycle;Max_cycle;Signal;HPM_P1;HPM_P2
2022/01/08 00:01:44;;;;;;;27.25;13.65;;;;;;;-0.55;nan;100771.91;5052149;28;20036;-69
2022/01/08 00:04:09;;;;;;;27.02;14.15;;;;;;;-0.29;nan;100805.72;5052963;28;20055;-69
2022/01/08 00:06:34;;;;;;;27.30;13.73;;;;;;;-0.25;nan;100811.38;5052218;28;20116;-69
2022/01/08 00:09:00;;;;;;;28.88;14.27;;;;;;;-0.27;nan;100811.53;5045756;28;20037;-69
2022/01/08 00:11:27;;;;;;;29.05;14.43;;;;;;;-0.31;nan;100788.66;5051603;28;20036;-70
2022/01/08 00:13:53;;;;;;;32.67;15.02;;;;;;;-0.24;nan;100797.47;5052048;28;20035;-70
2022/01/08 00:16:19;;;;;;;32.65;15.55;;;;;;;-0.31;nan;100780.91;5033892;28;20124;-70
2022/01/08 00:18:44;;;;;;;31.08;14.73;;;;;;;-0.23;nan;100794.75;5032835;28;20095;-69
2022/01/08 00:21:10;;;;;;;29.40;14.55;;;;;;;-0.20;nan;100796.25;5051309;28;20356;-70
2022/01/08 00:23:35;;;;;;;32.00;14.98;;;;;;;-0.18;nan;100789.16;5051060;28;20083;-70
2022/01/08 00:26:03;;;;;;;29.48;14.13;;;;;;;-0.15;nan;100788.03;5051853;28;20033;-70
2022/01/08 00:28:29;;;;;;;27.60;14.10;;;;;;;-0.17;nan;100785.59;5033788;28;20036;-69
2022/01/08 00:30:54;;;;;;;31.33;14.50;;;;;;;-0.13;nan;100791.31;5051505;28;20032;-69
2022/01/08 00:33:20;;;;;;;32.05;13.90;;;;;;;-0.07;nan;100798.50;5034252;28;20055;-70
2022/01/08 00:35:46;;;;;;;31.45;14.38;;;;;;;-0.10;nan;100791.81;5033851;28;20025;-69
2022/01/08 00:38:11;;;;;;;30.00;14.23;;;;;;;-0.07;nan;100796.72;5051439;28;20037;-70
2022/01/08 00:40:37;;;;;;;27.83;14.57;;;;;;;-0.12;nan;100775.66;5051289;28;20469;-69
2022/01/08 00:43:03;;;;;;;27.27;14.30;;;;;;;-0.10;nan;100778.06;5033572;28;20029;-70
2022/01/08 00:45:28;;;;;;;26.95;13.40;;;;;;;-0.07;nan;100782.97;5031071;28;20037;-70
2022/01/08 00:47:54;;;;;;;26.20;13.20;;;;;;;0.03;nan;100795.84;5044293;28;20033;-70
2022/01/08 00:50:19;;;;;;;25.92;13.05;;;;;;;-0.03;nan;100792.06;5052236;28;20437;-70
2022/01/08 00:52:45;;;;;;;26.05;13.55;;;;;;;0.05;nan;100799.09;5033402;28;20055;-70
2022/01/08 00:55:11;;;;;;;32.10;15.07;;;;;;;-0.04;nan;100783.47;5020989;28;20032;-69
2022/01/08 00:57:36;;;;;;;25.90;12.93;;;;;;;0.04;nan;100789.69;5051604;28;20029;-69
2022/01/08 01:00:04;;;;;;;29.48;14.10;;;;;;;0.08;nan;100804.81;5051891;28;20064;-70
2022/01/08 01:02:30;;;;;;;32.90;14.50;;;;;;;0.02;nan;100795.00;5051527;28;20029;-70
2022/01/08 01:04:55;;;;;;;26.33;13.52;;;;;;;0.06;nan;100790.38;5051651;28;20041;-70
2022/01/08 01:07:21;;;;;;;30.13;14.30;;;;;;;0.05;nan;100791.31;5051668;28;20123;-70
2022/01/08 01:09:46;;;;;;;29.38;14.10;;;;;;;0.00;nan;100778.84;5051668;28;20033;-70
2022/01/08 01:12:13;;;;;;;31.83;13.95;;;;;;;-0.01;nan;100777.19;5051417;28;20033;-71
2022/01/08 01:14:39;;;;;;;37.28;14.80;;;;;;;-0.04;nan;100759.38;5051638;28;20407;-70
2022/01/08 01:17:04;;;;;;;30.58;14.27;;;;;;;-0.05;nan;100760.31;5051547;28;20044;-70
2022/01/08 01:19:30;;;;;;;28.17;13.57;;;;;;;0.02;nan;100769.13;5031147;28;20143;-70
2022/01/08 01:21:57;;;;;;;24.08;12.43;;;;;;;0.07;nan;100776.44;5051375;28;20593;-69
2022/01/08 01:24:25;;;;;;;23.20;12.35;;;;;;;0.06;nan;100772.25;5051867;28;20044;-70
2022/01/08 01:43:20;;;;;;;24.98;12.15;;;;;;;0.06;nan;100743.78;5046650;28;20033;-70
2022/01/08 01:48:25;;;;;;;26.40;11.77;;;;;;;0.13;nan;100730.06;5050715;28;20033;-70
2022/01/08 01:50:52;;;;;;;21.63;10.75;;;;;;;0.16;nan;100740.13;5033150;28;20032;-70
2022/01/08 01:53:17;;;;;;;23.15;10.88;;;;;;;0.05;nan;100711.06;5029155;28;20033;-70
2022/01/08 01:55:45;;;;;;;22.55;10.65;;;;;;;0.13;nan;100719.72;5039089;28;20067;-70
2022/01/08 01:58:11;;;;;;;20.30;10.52;;;;;;;0.13;nan;100703.38;5032845;28;20474;-69
2022/01/08 02:00:37;;;;;;;23.50;12.07;;;;;;;0.13;nan;100709.38;5051222;28;20086;-69
2022/01/08 02:03:02;;;;;;;21.77;10.52;;;;;;;0.19;nan;100716.56;5051059;28;20044;-69
2022/01/08 02:05:28;;;;;;;21.65;10.95;;;;;;;0.20;nan;100714.78;5050878;28;20032;-70
2022/01/08 02:07:55;;;;;;;24.05;12.05;;;;;;;0.10;nan;100696.72;5032651;28;20043;-69
2022/01/08 02:10:22;;;;;;;25.35;11.55;;;;;;;0.23;nan;100708.47;5051077;28;20041;-69
2022/01/08 02:12:47;;;;;;;21.20;10.82;;;;;;;0.25;nan;100709.13;5054001;28;20415;-69
2022/01/08 02:15:12;;;;;;;21.77;11.00;;;;;;;0.18;nan;100701.97;5054521;28;20044;-69
2022/01/08 02:17:38;;;;;;;21.55;10.63;;;;;;;0.24;nan;100704.91;5047938;28;20044;-69
2022/01/08 02:20:05;;;;;;;21.42;10.35;;;;;;;0.24;nan;100703.16;5055018;28;20028;-69
2022/01/08 02:22:30;;;;;;;21.33;10.20;;;;;;;0.18;nan;100693.38;5054762;28;20040;-69
2022/01/08 02:24:56;;;;;;;22.77;10.50;;;;;;;0.20;nan;100692.25;5054689;28;20471;-69
2022/01/08 02:27:21;;;;;;;17.63;9.82;;;;;;;0.16;nan;100695.31;5035451;28;20116;-69
2022/01/08 02:29:49;;;;;;;21.33;10.50;;;;;;;0.20;nan;100705.22;5054571;28;20033;-69
2022/01/08 02:32:18;;;;;;;20.65;9.88;;;;;;;0.29;nan;100707.84;5051432;28;20501;-69
2022/01/08 02:34:47;;;;;;;21.63;10.93;;;;;;;0.31;nan;100711.13;5054268;28;20064;-69
2022/01/08 02:37:19;;;;;;;22.90;10.43;;;;;;;0.29;nan;100695.75;5035334;28;20156;-69
2022/01/08 02:39:48;;;;;;;19.70;10.02;;;;;;;0.37;nan;100702.75;5054256;28;20112;-70
2022/01/08 02:42:19;;;;;;;22.55;10.77;;;;;;;0.34;nan;100697.88;5054046;28;20049;-69
2022/01/08 02:44:46;;;;;;;18.38;10.45;;;;;;;0.45;nan;100702.81;5053737;28;20033;-69
2022/01/08 02:47:15;;;;;;;23.38;10.35;;;;;;;0.47;nan;100700.06;5036148;28;20033;-69
2022/01/08 02:49:42;;;;;;;17.05;10.07;;;;;;;0.42;nan;100687.56;5050761;28;20041;-69
2022/01/08 02:52:07;;;;;;;18.17;9.88;;;;;;;0.45;nan;100699.41;5035684;28;20099;-69
2022/01/08 02:54:33;;;;;;;18.70;9.35;;;;;;;0.38;nan;100683.66;5054032;28;20523;-69
2022/01/08 02:56:59;;;;;;;20.40;10.10;;;;;;;0.38;nan;100687.06;5053626;28;20130;-69
2022/01/08 02:59:24;;;;;;;17.35;9.48;;;;;;;0.40;nan;100685.13;5053790;28;20399;-69
2022/01/08 03:01:50;;;;;;;18.75;10.10;;;;;;;0.44;nan;100683.06;5053676;28;20506;-70
2022/01/08 03:04:16;;;;;;;18.90;9.35;;;;;;;0.45;nan;100671.72;5046163;28;20540;-69
2022/01/08 03:06:41;;;;;;;19.08;9.73;;;;;;;0.38;nan;100666.34;5053396;28;20044;-69
2022/01/08 03:09:07;;;;;;;19.23;10.00;;;;;;;0.37;nan;100659.53;5053531;28;20559;-70
2022/01/08 03:11:32;;;;;;;17.65;9.57;;;;;;;0.26;nan;100664.13;5053646;28;20386;-73
2022/01/08 03:13:58;;;;;;;20.20;9.80;;;;;;;0.22;nan;100658.47;5035679;28;20041;-72
2022/01/08 03:16:23;;;;;;;18.42;10.05;;;;;;;0.11;nan;100643.97;5053915;28;20040;-73
2022/01/08 03:18:49;;;;;;;16.70;8.98;;;;;;;0.12;nan;100632.66;5053338;28;20036;-73
2022/01/08 03:21:18;;;;;;;18.65;9.43;;;;;;;0.11;nan;100622.44;5053922;28;20041;-73
2022/01/08 03:23:49;;;;;;;19.15;10.38;;;;;;;0.13;nan;100636.84;5053154;28;20036;-71
2022/01/08 03:26:17;;;;;;;19.42;10.10;;;;;;;0.12;nan;100643.00;5053523;28;20033;-72
2022/01/08 03:28:42;;;;;;;19.45;9.77;;;;;;;0.16;nan;100644.31;5053438;28;20032;-73
2022/01/08 03:31:08;;;;;;;16.63;9.55;;;;;;;0.13;nan;100643.81;5053394;28;20056;-73
2022/01/08 03:33:33;;;;;;;18.02;10.10;;;;;;;0.09;nan;100635.53;5053313;28;20032;-73
2022/01/08 03:35:59;;;;;;;22.13;10.32;;;;;;;0.12;nan;100660.31;5035084;28;20390;-73
2022/01/08 03:38:24;;;;;;;25.65;11.13;;;;;;;0.08;nan;100649.44;5035537;28;20386;-72
2022/01/08 03:40:50;;;;;;;19.67;10.77;;;;;;;0.17;nan;100655.50;5052869;28;20044;-72
2022/01/08 03:43:15;;;;;;;22.05;11.27;;;;;;;0.17;nan;100653.72;5052754;28;20047;-72
2022/01/08 03:45:40;;;;;;;21.67;10.50;;;;;;;0.18;nan;100650.16;5053042;28;20112;-72
2022/01/08 03:48:26;;;;;;;19.58;10.75;;;;;;;0.05;nan;100638.56;5031712;28;20480;-72
2022/01/08 03:50:52;;;;;;;22.70;11.48;;;;;;;0.07;nan;100647.00;5039095;28;20032;-73
2022/01/08 03:53:18;;;;;;;22.13;10.95;;;;;;;0.05;nan;100642.00;5034766;28;20029;-73
2022/01/08 03:55:43;;;;;;;23.52;11.15;;;;;;;0.03;nan;100633.56;5052989;28;20394;-72
2022/01/08 03:58:09;;;;;;;22.13;11.90;;;;;;;0.10;nan;100642.34;5045920;28;20033;-73
2022/01/08 04:00:34;;;;;;;24.55;12.50;;;;;;;0.03;nan;100633.56;5036926;28;20491;-73
2022/01/08 04:03:00;;;;;;;26.88;13.23;;;;;;;0.04;nan;100631.78;5042828;28;20028;-73
2022/01/08 04:05:25;;;;;;;26.60;12.88;;;;;;;0.10;nan;100636.38;5036845;28;20033;-72
2022/01/08 04:07:51;;;;;;;25.30;14.52;;;;;;;0.13;nan;100638.66;5036011;28;20112;-72
2022/01/08 04:10:16;;;;;;;29.92;14.00;;;;;;;0.13;nan;100649.00;5039734;28;20164;-72
2022/01/08 04:12:46;;;;;;;27.48;13.23;;;;;;;0.16;nan;100639.13;5038344;28;20076;-72
2022/01/08 04:17:52;;;;;;;27.70;13.57;;;;;;;0.22;nan;100642.91;5039855;28;20040;-72
2022/01/08 04:20:19;;;;;;;26.20;13.68;;;;;;;0.25;nan;100644.41;5053006;28;20033;-72
2022/01/08 04:22:47;;;;;;;27.45;14.23;;;;;;;0.25;nan;100637.44;5046289;28;20106;-72
2022/01/08 04:25:14;;;;;;;25.42;11.23;;;;;;;0.26;nan;100636.44;5032113;28;20167;-74
2022/01/08 04:27:39;;;;;;;36.35;15.85;;;;;;;0.24;nan;100641.00;5036467;28;20037;-73
2022/01/08 04:30:05;;;;;;;35.90;16.15;;;;;;;0.20;nan;100632.69;5047545;28;20040;-74
2022/01/08 04:32:31;;;;;;;32.80;16.23;;;;;;;0.28;nan;100644.88;5045154;28;20025;-73
2022/01/08 04:34:56;;;;;;;33.38;15.90;;;;;;;0.17;nan;100621.84;5027964;28;20386;-73
2022/01/08 04:37:21;;;;;;;32.20;16.20;;;;;;;0.29;nan;100633.59;5043332;28;20398;-71
2022/01/08 04:39:47;;;;;;;32.38;15.52;;;;;;;0.23;nan;100634.19;5035901;28;20045;-74
2022/01/08 04:42:12;;;;;;;29.67;14.75;;;;;;;0.32;nan;100632.47;5041806;28;20450;-73
2022/01/08 04:44:38;;;;;;;33.28;15.07;;;;;;;0.31;nan;100636.00;5044287;28;20033;-74
2022/01/08 04:47:03;;;;;;;31.42;15.55;;;;;;;0.34;nan;100635.72;5035886;28;20029;-74
2022/01/08 04:49:29;;;;;;;32.25;14.90;;;;;;;0.30;nan;100627.44;5050561;28;20040;-73
2022/01/08 04:51:54;;;;;;;32.05;15.13;;;;;;;0.31;nan;100623.88;5052312;28;20029;-73
2022/01/08 04:54:21;;;;;;;31.63;14.88;;;;;;;0.29;nan;100624.97;5052266;28;20078;-71
2022/01/08 04:56:46;;;;;;;36.33;15.88;;;;;;;0.21;nan;100611.00;5030930;28;20440;-73
2022/01/08 04:59:11;;;;;;;31.90;15.10;;;;;;;0.30;nan;100619.66;5032496;28;20060;-73
2022/01/08 05:01:37;;;;;;;30.25;15.10;;;;;;;0.32;nan;100620.31;5045441;28;20032;-73
2022/01/08 05:04:02;;;;;;;35.03;14.07;;;;;;;0.44;nan;100633.03;5034139;28;20044;-73
2022/01/08 05:06:28;;;;;;;29.98;14.15;;;;;;;0.37;nan;100623.25;5050516;28;20064;-73
2022/01/08 05:08:53;;;;;;;32.38;15.95;;;;;;;0.39;nan;100620.53;5051669;28;20031;-73
2022/01/08 05:11:19;;;;;;;30.58;14.73;;;;;;;0.44;nan;100628.66;5052407;28;20445;-73
2022/01/08 05:13:45;;;;;;;32.38;15.25;;;;;;;0.36;nan;100626.81;5051940;28;20028;-73
2022/01/08 05:16:11;;;;;;;31.98;15.38;;;;;;;0.34;nan;100623.56;5052013;28;20467;-74
2022/01/08 05:18:36;;;;;;;31.75;16.48;;;;;;;0.41;nan;100634.94;5051840;28;20028;-73
2022/01/08 05:21:14;;;;;;;32.28;15.57;;;;;;;0.42;nan;100641.75;5034052;28;20025;-72
2022/01/08 05:23:40;;;;;;;39.25;15.90;;;;;;;0.39;nan;100636.06;5052088;28;20044;-75
2022/01/08 05:26:05;;;;;;;34.70;16.85;;;;;;;0.34;nan;100630.53;5051703;28;20033;-74
2022/01/08 05:28:31;;;;;;;35.63;16.92;;;;;;;0.32;nan;100619.50;5052098;28;20075;-73
2022/01/08 05:30:56;;;;;;;33.00;15.77;;;;;;;0.35;nan;100637.31;5051697;28;20041;-74
2022/01/08 05:33:21;;;;;;;32.25;16.90;;;;;;;0.21;nan;100621.38;5034083;28;20040;-74
2022/01/08 05:35:47;;;;;;;34.67;15.98;;;;;;;0.17;nan;100616.66;5051872;28;20102;-73
2022/01/08 05:38:12;;;;;;;32.35;16.02;;;;;;;0.28;nan;100638.91;5051844;28;20033;-73
2022/01/08 05:40:38;;;;;;;32.75;16.15;;;;;;;0.17;nan;100633.00;5051160;28;20467;-73
2022/01/08 05:43:03;;;;;;;39.30;16.65;;;;;;;0.17;nan;100627.84;5051790;28;20032;-73
2022/01/08 05:45:29;;;;;;;36.58;16.40;;;;;;;0.24;nan;100645.34;5035127;28;20079;-73
2022/01/08 05:47:54;;;;;;;34.25;15.90;;;;;;;0.13;nan;100629.09;5037593;28;20781;-73
2022/01/08 05:50:20;;;;;;;31.55;15.18;;;;;;;0.13;nan;100620.53;5038000;28;20037;-73
2022/01/08 05:52:45;;;;;;;32.63;15.48;;;;;;;0.24;nan;100625.47;5037372;28;20104;-73
2022/01/08 05:55:11;;;;;;;31.80;15.00;;;;;;;0.18;nan;100619.09;5055407;28;20032;-73
2022/01/08 05:57:36;;;;;;;33.08;16.45;;;;;;;0.28;nan;100634.53;5055517;28;20035;-73
2022/01/08 06:00:04;;;;;;;30.58;14.70;;;;;;;0.28;nan;100636.31;5055561;28;20029;-73
2022/01/08 06:02:30;;;;;;;28.55;14.88;;;;;;;0.18;nan;100621.69;5037753;28;20503;-73
2022/01/08 06:04:55;;;;;;;32.85;15.85;;;;;;;0.26;nan;100630.47;5055180;28;20045;-74
2022/01/08 06:07:20;;;;;;;29.95;14.77;;;;;;;0.12;nan;100614.53;5037413;28;20036;-73
2022/01/08 06:09:46;;;;;;;36.10;15.95;;;;;;;0.06;nan;100602.19;5036906;28;20036;-74
2022/01/08 06:12:11;;;;;;;32.85;15.63;;;;;;;0.15;nan;100622.00;5055371;28;20068;-73
2022/01/08 06:14:37;;;;;;;32.92;15.52;;;;;;;0.10;nan;100615.66;5055165;28;20364;-73
2022/01/08 06:17:02;;;;;;;35.08;16.25;;;;;;;0.11;nan;100622.44;5044269;28;20117;-74
2022/01/08 06:19:28;;;;;;;33.30;15.65;;;;;;;0.11;nan;100612.09;5055024;28;20504;-73
2022/01/08 06:21:53;;;;;;;37.15;16.92;;;;;;;0.17;nan;100624.44;5055224;28;20033;-73
2022/01/08 06:24:19;;;;;;;33.28;15.68;;;;;;;0.15;nan;100627.16;5055168;28;20379;-73
2022/01/08 06:26:44;;;;;;;34.75;15.95;;;;;;;0.14;nan;100628.13;5054762;28;20564;-73
2022/01/08 06:29:10;;;;;;;32.10;15.02;;;;;;;0.12;nan;100619.72;5037126;28;20091;-73
2022/01/08 06:31:35;;;;;;;31.00;14.80;;;;;;;0.09;nan;100626.94;5036433;28;20033;-73
2022/01/08 06:34:01;;;;;;;31.85;15.45;;;;;;;0.17;nan;100642.56;5036860;28;20496;-74
2022/01/08 06:36:26;;;;;;;48.95;22.42;;;;;;;-0.05;nan;100605.84;5036683;28;20021;-74
2022/01/08 06:38:52;;;;;;;45.80;20.63;;;;;;;0.27;nan;100655.41;5054473;28;20029;-73
2022/01/08 06:41:18;;;;;;;41.38;20.20;;;;;;;0.27;nan;100647.66;5053794;28;20047;-72
2022/01/08 06:43:44;;;;;;;35.03;16.70;;;;;;;0.05;nan;100615.25;5054809;28;20033;-73
2022/01/08 06:46:10;;;;;;;33.78;16.55;;;;;;;0.17;nan;100635.59;5036439;28;20029;-74
2022/01/08 06:48:35;;;;;;;31.38;15.63;;;;;;;0.23;nan;100633.38;5054440;28;20494;-72
2022/01/08 06:51:01;;;;;;;30.40;15.60;;;;;;;0.12;nan;100616.28;5054470;28;20068;-73
2022/01/08 06:53:27;;;;;;;33.35;16.33;;;;;;;0.12;nan;100621.47;5036353;28;20057;-74
2022/01/08 06:55:52;;;;;;;34.13;15.82;;;;;;;0.13;nan;100629.09;5054630;28;20036;-74
2022/01/08 06:58:20;;;;;;;41.05;20.75;;;;;;;0.12;nan;100624.88;5053985;28;20040;-74
2022/01/08 07:00:46;;;;;;;46.40;23.17;;;;;;;0.16;nan;100628.78;5036392;28;20036;-74
2022/01/08 07:03:11;;;;;;;64.75;28.73;;;;;;;0.13;nan;100613.56;5036723;28;20037;-74
2022/01/08 07:05:37;;;;;;;50.08;24.02;;;;;;;0.24;nan;100629.81;5053983;28;20029;-75
2022/01/08 07:08:03;;;;;;;39.65;18.10;;;;;;;0.11;nan;100612.09;5054037;28;20025;-75
2022/01/08 07:10:29;;;;;;;45.35;20.80;;;;;;;-0.01;nan;100599.38;5054325;28;20037;-74
2022/01/08 07:12:54;;;;;;;43.97;21.85;;;;;;;0.03;nan;100601.69;5054247;28;20526;-75
2022/01/08 07:15:20;;;;;;;46.08;22.60;;;;;;;0.08;nan;100620.97;5054158;28;20025;-74
2022/01/08 07:17:46;;;;;;;41.72;21.38;;;;;;;0.04;nan;100617.03;5049460;28;20064;-74
2022/01/08 07:20:12;;;;;;;44.80;21.42;;;;;;;0.12;nan;100637.00;5036280;28;20033;-73
2022/01/08 07:22:38;;;;;;;45.03;20.88;;;;;;;0.10;nan;100624.22;5053146;28;20032;-73
2022/01/08 07:25:04;;;;;;;41.80;19.95;;;;;;;0.06;nan;100614.31;5035798;28;20083;-74
2022/01/08 07:27:32;;;;;;;178.98;29.50;;;;;;;0.07;nan;100614.16;5035710;28;20557;-75
2022/01/08 07:30:01;;;;;;;38.80;19.40;;;;;;;0.03;nan;100601.69;5053972;28;20036;-74
2022/01/08 07:32:27;;;;;;;42.28;19.30;;;;;;;-0.13;nan;100582.47;5054038;28;20424;-74
2022/01/08 07:34:52;;;;;;;37.35;17.63;;;;;;;0.10;nan;100615.66;5053754;28;20086;-74
2022/01/08 07:37:18;;;;;;;34.22;17.13;;;;;;;0.03;nan;100605.06;5052928;28;20040;-74
2022/01/08 07:39:43;;;;;;;34.17;16.38;;;;;;;0.12;nan;100624.88;5053331;28;20049;-74
2022/01/08 07:42:08;;;;;;;32.83;15.07;;;;;;;0.06;nan;100609.13;5035637;28;20475;-74
2022/01/08 07:44:34;;;;;;;30.02;14.68;;;;;;;0.01;nan;100593.25;5053691;28;20044;-74
2022/01/08 07:47:00;;;;;;;31.02;15.00;;;;;;;0.09;nan;100614.00;5053138;28;20390;-74
2022/01/08 07:49:26;;;;;;;27.00;12.27;;;;;;;0.09;nan;100609.63;5053501;28;20025;-74
2022/01/08 07:51:51;;;;;;;29.50;14.25;;;;;;;0.07;nan;100596.03;5053001;28;20470;-74
2022/01/08 07:54:17;;;;;;;29.17;13.35;;;;;;;0.13;nan;100616.16;5053357;28;20037;-74
2022/01/08 07:56:42;;;;;;;31.00;13.38;;;;;;;0.12;nan;100601.59;5035224;28;20075;-74
2022/01/08 07:59:08;;;;;;;28.45;13.07;;;;;;;0.13;nan;100607.56;5053415;28;20086;-74
2022/01/08 08:01:33;;;;;;;29.63;13.68;;;;;;;0.08;nan;100600.25;5051651;28;20025;-74
2022/01/08 08:03:58;;;;;;;30.02;13.95;;;;;;;0.12;nan;100596.41;5053329;28;20039;-74
2022/01/08 08:06:24;;;;;;;88.70;15.23;;;;;;;0.09;nan;100588.13;5052569;28;20536;-74
2022/01/08 08:08:49;;;;;;;29.70;13.57;;;;;;;0.09;nan;100582.94;5051954;28;20072;-74
2022/01/08 08:11:14;;;;;;;104.47;19.20;;;;;;;0.09;nan;100594.09;5034914;28;20037;-72
2022/01/08 08:13:40;;;;;;;26.50;12.85;;;;;;;0.12;nan;100592.97;5058168;28;20048;-74
2022/01/08 08:16:07;;;;;;;31.55;13.70;;;;;;;0.19;nan;100599.19;5067685;28;20090;-73
2022/01/08 08:18:32;;;;;;;25.88;12.63;;;;;;;0.19;nan;100600.00;5042741;28;20040;-73
2022/01/08 08:20:58;;;;;;;27.27;13.60;;;;;;;0.09;nan;100570.78;5032391;28;20037;-73
2022/01/08 08:23:23;;;;;;;28.08;13.77;;;;;;;0.17;nan;100586.41;5033020;28;20483;-74
2022/01/08 08:25:49;;;;;;;26.52;13.18;;;;;;;0.13;nan;100582.47;5032698;28;20026;-72
2022/01/08 08:28:14;;;;;;;137.07;19.83;;;;;;;0.21;nan;100589.47;5031533;28;20044;-73
2022/01/08 08:30:40;;;;;;;31.30;14.52;;;;;;;0.23;nan;100586.75;5032785;28;20029;-74
2022/01/08 08:33:05;;;;;;;30.20;14.80;;;;;;;0.24;nan;100583.19;5032559;28;20033;-74
2022/01/08 08:35:32;;;;;;;32.90;14.52;;;;;;;0.20;nan;100580.91;5062812;28;20032;-74
2022/01/08 08:37:57;;;;;;;37.17;14.27;;;;;;;0.13;nan;100566.13;5051964;28;20083;-74
2022/01/08 08:40:22;;;;;;;30.08;13.40;;;;;;;0.12;nan;100567.94;5052366;28;20570;-74
2022/01/08 08:42:48;;;;;;;25.75;11.75;;;;;;;0.26;nan;100583.84;5034378;28;20120;-73
2022/01/08 08:45:14;;;;;;;38.83;13.38;;;;;;;0.11;nan;100568.06;5052496;28;20128;-73
2022/01/08 08:47:40;;;;;;;29.45;13.65;;;;;;;0.18;nan;100577.66;5034454;28;20474;-73
2022/01/08 08:50:09;;;;;;;26.63;12.85;;;;;;;0.26;nan;100589.84;5052548;28;20040;-74
2022/01/08 08:52:34;;;;;;;31.50;13.63;;;;;;;0.21;nan;100579.94;5052367;28;20119;-74
2022/01/08 08:55:00;;;;;;;29.33;14.05;;;;;;;0.25;nan;100587.41;5052173;28;20477;-74
2022/01/08 08:57:26;;;;;;;29.48;14.45;;;;;;;0.23;nan;100573.81;5052411;28;20037;-73
2022/01/08 08:59:51;;;;;;;30.20;14.10;;;;;;;0.08;nan;100551.06;5052548;28;20479;-74
2022/01/08 09:02:17;;;;;;;28.23;13.55;;;;;;;0.26;nan;100574.28;5052412;28;20029;-74
2022/01/08 09:04:43;;;;;;;27.52;12.73;;;;;;;0.31;nan;100579.03;5052104;28;20032;-73
2022/01/08 09:07:09;;;;;;;30.15;13.45;;;;;;;0.20;nan;100555.00;5033790;28;20037;-74
2022/01/08 09:09:35;;;;;;;29.27;13.82;;;;;;;0.24;nan;100557.28;5052310;28;20040;-73
2022/01/08 09:12:04;;;;;;;24.58;12.10;;;;;;;0.30;nan;100564.47;5052103;28;20070;-74
2022/01/08 09:14:29;;;;;;;26.92;13.18;;;;;;;0.30;nan;100561.88;5052545;28;20116;-74
2022/01/08 09:16:58;;;;;;;31.40;13.85;;;;;;;0.32;nan;100552.16;5044265;28;20128;-74
2022/01/08 09:19:24;;;;;;;30.47;13.33;;;;;;;0.31;nan;100553.13;5052165;28;20059;-73
2022/01/08 09:21:50;;;;;;;25.88;12.75;;;;;;;0.37;nan;100558.50;5055791;28;20025;-74
2022/01/08 09:24:18;;;;;;;26.77;12.77;;;;;;;0.17;nan;100513.09;5056338;28;20029;-74
2022/01/08 09:26:44;;;;;;;26.75;12.93;;;;;;;0.31;nan;100553.94;5056024;28;20032;-74
2022/01/08 09:29:10;;;;;;;27.63;13.38;;;;;;;0.35;nan;100549.25;5056032;28;20534;-74
2022/01/08 09:31:36;;;;;;;25.80;12.57;;;;;;;0.27;nan;100529.31;5055961;28;20159;-73
2022/01/08 09:34:02;;;;;;;28.15;13.95;;;;;;;0.33;nan;100528.69;5056126;28;20162;-74
2022/01/08 09:36:27;;;;;;;25.02;11.85;;;;;;;0.37;nan;100532.59;5055933;28;20060;-72
2022/01/08 09:38:53;;;;;;;23.63;11.23;;;;;;;0.37;nan;100532.59;5055524;28;20029;-74
2022/01/08 09:41:18;;;;;;;27.15;11.20;;;;;;;0.40;nan;100531.47;5055667;28;20045;-73
2022/01/08 09:43:44;;;;;;;23.38;10.77;;;;;;;0.47;nan;100537.66;5037640;28;20471;-73
2022/01/08 09:46:09;;;;;;;22.20;11.18;;;;;;;0.46;nan;100536.06;5055960;28;20167;-74
2022/01/08 09:48:35;;;;;;;23.50;11.10;;;;;;;0.48;nan;100528.94;5037423;28;20028;-73
2022/01/08 09:51:00;;;;;;;23.23;10.48;;;;;;;0.46;nan;100522.28;5055695;28;20573;-73
2022/01/08 09:53:26;;;;;;;22.45;10.38;;;;;;;0.48;nan;100518.56;5055814;28;20126;-73
2022/01/08 09:55:52;;;;;;;21.95;10.52;;;;;;;0.50;nan;100534.75;5037390;28;20579;-73
2022/01/08 09:58:17;;;;;;;23.90;10.60;;;;;;;0.38;nan;100508.34;5055604;28;20108;-73
2022/01/08 10:00:45;;;;;;;22.63;10.77;;;;;;;0.45;nan;100511.09;5055395;28;20031;-74
2022/01/08 10:03:17;;;;;;;22.02;11.38;;;;;;;0.58;nan;100531.41;5054550;28;20029;-73
2022/01/08 10:05:45;;;;;;;21.35;10.40;;;;;;;0.55;nan;100513.56;5055400;28;20033;-73
2022/01/08 10:08:14;;;;;;;21.02;10.38;;;;;;;0.68;nan;100536.47;5055194;28;20482;-73
2022/01/08 10:10:39;;;;;;;22.17;10.80;;;;;;;0.55;nan;100511.81;5037482;28;20036;-72
2022/01/08 10:13:05;;;;;;;20.55;10.32;;;;;;;0.60;nan;100516.50;5057365;28;20029;-74
2022/01/08 10:18:21;;;;;;;52.22;18.05;;;;;;;0.63;nan;100505.81;5054699;28;20522;-74
2022/01/08 10:20:50;;;;;;;37.58;14.40;;;;;;;0.61;nan;100494.81;5055109;28;20037;-75
2022/01/08 10:23:20;;;;;;;43.50;15.73;;;;;;;0.73;nan;100505.69;5038076;28;20040;-74
2022/01/08 10:26:05;;;;;;;37.88;14.43;;;;;;;0.72;nan;100506.66;5055424;28;20032;-74
2022/01/08 10:28:45;;;;;;;36.33;12.02;;;;;;;0.65;nan;100496.13;5035044;28;20399;-74
2022/01/08 10:31:16;;;;;;;31.20;12.80;;;;;;;0.73;nan;100496.13;5023209;28;20037;-74
2022/01/08 10:33:48;;;;;;;33.13;13.20;;;;;;;0.66;nan;100484.78;5054399;28;20085;-74
2022/01/08 10:36:19;;;;;;;63.92;17.08;;;;;;;0.75;nan;100495.97;5036402;28;20025;-73
2022/01/08 10:38:50;;;;;;;32.40;12.65;;;;;;;0.83;nan;100491.59;5054729;28;20040;-74
2022/01/08 10:41:16;;;;;;;36.00;14.05;;;;;;;0.82;nan;100486.59;5054547;28;20144;-74
2022/01/08 10:43:41;;;;;;;27.58;11.48;;;;;;;0.75;nan;100478.66;5054656;28;20025;-74
2022/01/08 10:46:10;;;;;;;29.13;12.43;;;;;;;0.73;nan;100472.00;5036503;28;20119;-74
2022/01/08 10:48:36;;;;;;;24.70;10.80;;;;;;;0.75;nan;100473.47;5054433;28;20036;-73
2022/01/08 10:51:11;;;;;;;22.77;11.10;;;;;;;0.66;nan;100463.22;5036518;28;20032;-74
2022/01/08 10:54:01;;;;;;;46.88;14.15;;;;;;;0.88;nan;100475.59;5036482;28;20047;-73
2022/01/08 10:56:40;;;;;;;44.38;15.98;;;;;;;0.88;nan;100470.41;5054680;28;20056;-73
2022/01/08 10:59:14;;;;;;;28.48;12.40;;;;;;;0.91;nan;100462.31;5054527;28;20033;-73
2022/01/08 11:01:49;;;;;;;23.88;11.27;;;;;;;0.88;nan;100465.22;5054332;28;20041;-74
2022/01/08 11:04:16;;;;;;;22.98;9.50;;;;;;;0.73;nan;100441.69;5036273;28;20517;-74
2022/01/08 11:06:54;;;;;;;24.40;10.73;;;;;;;0.82;nan;100460.69;5053783;28;20124;-74
2022/01/08 11:09:20;;;;;;;27.88;11.18;;;;;;;0.83;nan;100457.09;5054005;28;20116;-74
2022/01/08 11:11:46;;;;;;;20.83;11.20;;;;;;;0.83;nan;100449.31;5036259;28;20045;-74
2022/01/08 11:14:45;;;;;;;19.92;10.15;;;;;;;0.81;nan;100443.50;5054054;28;20032;-74
2022/01/08 11:17:12;;;;;;;18.08;9.40;;;;;;;0.85;nan;100450.78;5053762;28;20433;-75
2022/01/08 11:19:38;;;;;;;;;;;;;;;0.89;nan;100455.66;5034049;28;20033;-73
2022/01/08 11:22:10;;;;;;;21.52;10.80;;;;;;;0.85;nan;100450.78;5054066;28;19909;-73
2022/01/08 11:24:38;;;;;;;20.77;10.80;;;;;;;0.76;nan;100435.38;5053992;28;20089;-73
2022/01/08 11:27:07;;;;;;;21.90;10.40;;;;;;;0.83;nan;100437.16;5035776;28;20028;-73
2022/01/08 11:29:35;;;;;;;33.65;14.05;;;;;;;0.86;nan;100428.25;5054095;28;20033;-72
2022/01/08 11:32:03;;;;;;;88.55;18.70;;;;;;;0.78;nan;100410.13;5053798;28;20427;-73
2022/01/08 11:34:30;;;;;;;22.60;12.00;;;;;;;0.83;nan;100413.84;5035641;28;20842;-73
2022/01/08 11:36:56;;;;;;;21.55;10.65;;;;;;;0.96;nan;100435.88;5053384;28;20497;-73
2022/01/08 11:39:26;;;;;;;21.90;11.48;;;;;;;0.90;nan;100426.97;5053345;28;20045;-73
2022/01/08 11:41:53;;;;;;;26.17;12.82;;;;;;;0.91;nan;100427.78;5053941;28;20037;-73
2022/01/08 11:44:19;;;;;;;97.57;17.15;;;;;;;0.93;nan;100423.25;5035245;28;20029;-73
2022/01/08 11:46:46;;;;;;;28.80;13.95;;;;;;;0.92;nan;100435.41;5035192;28;20029;-73
2022/01/08 11:49:13;;;;;;;28.65;13.48;;;;;;;0.78;nan;100399.75;5034824;28;20036;-73
2022/01/08 11:51:39;;;;;;;28.83;14.23;;;;;;;0.91;nan;100418.25;5035500;28;20177;-72
2022/01/08 11:54:06;;;;;;;30.00;15.07;;;;;;;0.84;nan;100406.91;5041350;28;20130;-72
2022/01/08 11:56:34;;;;;;;30.05;14.85;;;;;;;0.94;nan;100415.31;5035406;28;20021;-73